Time;durP1;ratioP1;P1;durP2;ratioP2;P2;SDS_P1;SDS_P2;PMS_P1;PMS_P2;Temp;Humidity;BMP_temperature;BMP_pressure;BME280_temperature;BME280_humidity;BME280_pressure;Samples;Min_cycle;Max_cycle;Signal;HPM_P1;HPM_P2
2021/01/18 00:00:57;;;;;;;1.98;1.15;;;18.80;38.80;;;;;;5071925;28;20020;-81
2021/01/18 00:03:23;;;;;;;3.00;1.35;;;18.80;38.80;;;;;;5086431;28;20048;-80
2021/01/18 00:05:48;;;;;;;4.32;1.13;;;18.80;38.70;;;;;;5101644;28;20081;-79
2021/01/18 00:08:14;;;;;;;1.67;0.90;;;18.70;38.70;;;;;;5062721;28;20028;-82
2021/01/18 00:10:39;;;;;;;1.83;0.95;;;18.70;38.80;;;;;;5063498;28;20047;-80
2021/01/18 00:13:05;;;;;;;2.10;0.60;;;18.70;38.80;;;;;;5067730;28;20037;-79
2021/01/18 00:15:31;;;;;;;2.47;0.80;;;18.70;38.70;;;;;;5096911;28;20168;-79
2021/01/18 00:17:57;;;;;;;3.38;1.05;;;18.70;38.80;;;;;;5099581;28;20051;-80
2021/01/18 00:20:23;;;;;;;1.30;0.70;;;18.70;38.80;;;;;;5074731;28;20028;-80
2021/01/18 00:22:49;;;;;;;2.30;1.08;;;18.70;38.80;;;;;;5079964;28;20474;-79
2021/01/18 00:25:22;;;;;;;1.83;0.80;;;18.70;38.80;;;;;;5083264;28;20040;-81
2021/01/18 00:27:49;;;;;;;1.20;0.57;;;18.60;38.80;;;;;;5075160;28;20062;-81
2021/01/18 00:30:21;;;;;;;2.20;0.90;;;18.70;38.80;;;;;;5065279;28;20082;-81
2021/01/18 00:32:47;;;;;;;2.58;1.00;;;18.60;38.80;;;;;;5082554;28;20111;-82
2021/01/18 00:35:15;;;;;;;2.22;0.80;;;18.60;38.70;;;;;;5085601;28;20068;-81
2021/01/18 00:37:46;;;;;;;2.45;1.10;;;18.60;38.70;;;;;;5061490;28;20386;-80
2021/01/18 00:40:13;;;;;;;1.80;0.75;;;18.60;38.80;;;;;;5079186;28;20028;-80
2021/01/18 00:42:40;;;;;;;2.03;1.00;;;18.60;38.80;;;;;;5076458;28;20616;-80
2021/01/18 00:45:08;;;;;;;3.42;1.00;;;18.60;38.80;;;;;;5075126;28;20040;-79
2021/01/18 00:47:45;;;;;;;2.92;0.85;;;18.50;38.80;;;;;;5096282;28;20121;-81
2021/01/18 00:50:12;;;;;;;2.53;0.50;;;18.50;38.80;;;;;;5076350;28;20028;-82
2021/01/18 00:52:42;;;;;;;1.67;0.63;;;18.60;38.80;;;;;;5092658;28;20059;-80
2021/01/18 00:55:11;;;;;;;1.77;0.73;;;18.60;38.80;;;;;;5069130;28;20732;-81
2021/01/18 00:57:37;;;;;;;1.70;0.65;;;18.50;38.80;;;;;;5084520;28;20048;-81
2021/01/18 01:00:05;;;;;;;2.03;0.60;;;18.50;38.80;;;;;;5075083;28;20032;-81
2021/01/18 01:02:31;;;;;;;2.88;0.60;;;18.50;38.80;;;;;;5084470;28;20024;-80
2021/01/18 01:04:56;;;;;;;2.78;0.57;;;18.50;38.90;;;;;;5115359;28;20047;-81
2021/01/18 01:07:22;;;;;;;2.50;0.75;;;18.50;38.90;;;;;;5111720;28;20055;-80
2021/01/18 01:09:48;;;;;;;2.03;0.60;;;18.50;38.80;;;;;;5095053;28;20088;-80
2021/01/18 01:12:13;;;;;;;4.10;0.77;;;18.50;38.70;;;;;;5076353;28;20731;-81
2021/01/18 01:14:39;;;;;;;1.65;0.63;;;18.50;38.80;;;;;;5078835;28;20444;-80
2021/01/18 01:17:04;;;;;;;1.92;0.65;;;18.40;38.80;;;;;;5081368;28;20050;-80
2021/01/18 01:19:30;;;;;;;3.05;0.90;;;18.40;38.80;;;;;;5095406;28;20036;-79
2021/01/18 01:21:56;;;;;;;2.63;0.65;;;18.40;38.80;;;;;;5075812;28;20051;-81
2021/01/18 01:24:21;;;;;;;1.83;0.80;;;18.40;38.80;;;;;;5069569;28;20044;-79
2021/01/18 01:26:47;;;;;;;1.58;0.52;;;18.40;38.90;;;;;;5095303;28;20056;-80
2021/01/18 01:29:13;;;;;;;0.90;0.40;;;18.40;39.00;;;;;;5081812;28;20490;-79
2021/01/18 01:31:38;;;;;;;1.42;0.60;;;18.40;38.90;;;;;;5079184;28;20039;-79
2021/01/18 01:34:04;;;;;;;2.03;0.50;;;18.40;39.00;;;;;;5063397;28;20056;-80
2021/01/18 01:36:30;;;;;;;1.77;0.60;;;18.40;39.00;;;;;;5095396;28;20024;-80
2021/01/18 01:38:55;;;;;;;2.92;0.50;;;18.40;38.90;;;;;;5096245;28;20028;-79
2021/01/18 01:41:21;;;;;;;2.63;0.77;;;18.40;38.90;;;;;;5085737;28;20027;-80
2021/01/18 01:43:46;;;;;;;2.47;0.73;;;18.30;39.00;;;;;;5061845;28;20410;-80
2021/01/18 01:46:13;;;;;;;0.80;0.30;;;18.40;39.00;;;;;;5073159;28;20062;-80
2021/01/18 01:48:39;;;;;;;1.40;0.65;;;18.40;39.00;;;;;;5096715;28;20034;-81
2021/01/18 01:51:05;;;;;;;2.63;0.98;;;18.30;39.00;;;;;;5096081;28;20111;-81
2021/01/18 01:53:32;;;;;;;1.35;0.47;;;18.30;39.20;;;;;;5087694;28;20024;-78
2021/01/18 01:55:59;;;;;;;0.73;0.43;;;18.30;39.10;;;;;;5076050;28;20035;-80
2021/01/18 01:58:25;;;;;;;2.03;0.80;;;18.30;39.00;;;;;;5085187;28;20024;-80
2021/01/18 02:00:53;;;;;;;2.03;0.60;;;18.30;39.10;;;;;;5073658;28;20032;-81
2021/01/18 02:03:31;;;;;;;2.05;0.65;;;18.30;39.10;;;;;;5085918;28;20032;-80
2021/01/18 02:05:57;;;;;;;1.95;0.80;;;18.30;39.10;;;;;;5070255;28;20052;-81
2021/01/18 02:08:23;;;;;;;4.43;0.73;;;18.30;39.10;;;;;;5078169;28;20035;-82
2021/01/18 02:10:48;;;;;;;3.03;0.60;;;18.30;39.10;;;;;;5095100;28;20016;-81
2021/01/18 02:13:51;;;;;;;1.98;0.80;;;18.20;39.10;;;;;;5070295;28;20056;-80
2021/01/18 02:16:19;;;;;;;;;;;18.30;39.10;;;;;;5094349;28;20024;-81
2021/01/18 02:19:33;;;;;;;2.47;0.82;;;18.20;39.10;;;;;;5073520;28;19965;-79
2021/01/18 02:22:18;;;;;;;1.27;0.47;;;18.30;39.10;;;;;;5076038;28;20028;-81
2021/01/18 02:25:21;;;;;;;2.92;0.57;;;18.20;39.00;;;;;;5079631;28;20029;-83
2021/01/18 02:28:05;;;;;;;1.95;0.50;;;18.20;39.00;;;;;;5060800;28;20028;-80
2021/01/18 02:30:56;;;;;;;2.80;0.50;;;18.20;39.00;;;;;;5095368;28;20040;-80
2021/01/18 02:33:41;;;;;;;1.35;0.28;;;18.20;39.10;;;;;;5079860;28;20116;-80
2021/01/18 02:36:49;;;;;;;1.20;0.55;;;18.20;39.10;;;;;;5085786;28;20430;-79
2021/01/18 02:39:54;;;;;;;2.00;0.80;;;18.20;39.10;;;;;;5075510;28;20063;-79
2021/01/18 02:42:26;;;;;;;0.95;0.45;;;18.20;39.10;;;;;;5075165;28;20020;-82
2021/01/18 02:44:57;;;;;;;1.85;0.30;;;18.20;39.10;;;;;;5071266;28;20077;-82
2021/01/18 02:47:24;;;;;;;2.83;0.60;;;18.20;39.20;;;;;;5076608;28;20078;-79
2021/01/18 02:49:55;;;;;;;1.25;0.45;;;18.20;39.10;;;;;;5089572;28;20037;-81
2021/01/18 02:52:21;;;;;;;1.27;0.30;;;18.20;39.10;;;;;;5090521;28;20040;-82
2021/01/18 02:54:47;;;;;;;1.40;0.38;;;18.10;39.20;;;;;;5067029;28;20032;-79
2021/01/18 02:57:14;;;;;;;2.50;0.40;;;18.20;39.10;;;;;;5089225;28;20040;-82
2021/01/18 02:59:42;;;;;;;1.00;0.50;;;18.20;39.00;;;;;;5095075;28;20028;-81
2021/01/18 03:02:17;;;;;;;1.20;0.40;;;18.20;39.00;;;;;;5071578;28;20140;-80
2021/01/18 03:05:01;;;;;;;1.67;0.40;;;18.10;39.10;;;;;;5058259;28;20082;-81
2021/01/18 03:07:29;;;;;;;1.25;0.40;;;18.10;39.10;;;;;;5088900;28;20131;-79
2021/01/18 03:10:08;;;;;;;1.23;0.45;;;18.10;39.10;;;;;;5061838;28;20082;-81
2021/01/18 03:12:41;;;;;;;1.77;0.30;;;18.10;39.10;;;;;;5076837;28;20027;-80
2021/01/18 03:15:13;;;;;;;1.77;0.40;;;18.10;39.10;;;;;;5071580;28;20033;-81
2021/01/18 03:17:41;;;;;;;1.63;0.35;;;18.10;39.10;;;;;;5070385;28;20439;-81
2021/01/18 03:20:09;;;;;;;1.98;0.38;;;18.10;39.10;;;;;;5073304;28;20082;-81
2021/01/18 03:22:34;;;;;;;0.80;0.30;;;18.10;39.10;;;;;;5088084;28;20039;-81
2021/01/18 03:25:07;;;;;;;1.70;0.45;;;18.10;39.20;;;;;;5068410;28;20409;-81
2021/01/18 03:27:53;;;;;;;1.00;0.40;;;18.10;39.20;;;;;;5068431;28;20036;-79
2021/01/18 03:30:22;;;;;;;2.10;0.35;;;18.10;39.10;;;;;;5080203;28;20602;-80
2021/01/18 03:32:55;;;;;;;1.38;0.40;;;18.10;39.10;;;;;;5069272;28;20039;-80
2021/01/18 03:35:22;;;;;;;1.15;0.57;;;18.10;39.20;;;;;;5064384;28;20024;-81
2021/01/18 03:37:52;;;;;;;0.90;0.20;;;18.10;39.10;;;;;;5097859;28;20040;-80
2021/01/18 03:40:18;;;;;;;1.92;0.50;;;18.10;39.20;;;;;;5076906;28;20028;-81
2021/01/18 03:42:44;;;;;;;1.20;0.30;;;18.10;39.20;;;;;;5084223;28;20056;-81
2021/01/18 03:45:10;;;;;;;0.77;0.30;;;18.10;39.20;;;;;;5072198;28;20131;-80
2021/01/18 03:47:36;;;;;;;1.98;0.35;;;18.10;39.20;;;;;;5075452;28;20459;-81
2021/01/18 03:50:01;;;;;;;1.52;0.30;;;18.10;39.20;;;;;;5084118;28;20024;-81
2021/01/18 03:52:27;;;;;;;0.93;0.20;;;18.10;39.30;;;;;;5097336;28;20622;-81
2021/01/18 03:54:53;;;;;;;1.17;0.40;;;18.00;39.20;;;;;;5071121;28;20028;-81
2021/01/18 03:57:18;;;;;;;0.65;0.25;;;18.00;39.20;;;;;;5062517;28;20035;-80
2021/01/18 03:59:44;;;;;;;1.80;0.63;;;18.00;39.30;;;;;;5065753;28;20028;-80
2021/01/18 04:02:11;;;;;;;0.90;0.40;;;18.00;39.10;;;;;;5094935;28;20093;-81
2021/01/18 04:04:36;;;;;;;0.63;0.20;;;18.00;39.00;;;;;;5084893;28;20025;-80
2021/01/18 04:07:02;;;;;;;0.80;0.20;;;18.00;39.20;;;;;;5092423;28;20028;-80
2021/01/18 04:09:28;;;;;;;0.60;0.30;;;18.00;39.20;;;;;;5092336;28;20056;-81
2021/01/18 04:11:55;;;;;;;0.88;0.20;;;18.00;39.30;;;;;;5073568;28;20031;-80
2021/01/18 04:14:20;;;;;;;1.05;0.40;;;18.00;39.30;;;;;;5088246;28;20032;-80
2021/01/18 04:16:46;;;;;;;0.85;0.20;;;18.00;39.30;;;;;;5098198;28;20027;-81
2021/01/18 04:19:11;;;;;;;1.08;0.40;;;18.00;39.30;;;;;;5080506;28;20859;-80
2021/01/18 04:21:37;;;;;;;0.60;0.10;;;18.00;39.20;;;;;;5084057;28;20029;-81
2021/01/18 04:24:04;;;;;;;3.15;0.30;;;18.00;39.10;;;;;;5082009;28;20040;-80
2021/01/18 04:26:29;;;;;;;1.35;0.40;;;18.00;39.30;;;;;;5097297;28;20437;-81
2021/01/18 04:28:55;;;;;;;1.75;0.30;;;18.00;39.20;;;;;;5097659;28;20045;-80
2021/01/18 04:31:21;;;;;;;1.92;0.30;;;17.90;39.30;;;;;;5088186;28;20040;-80
2021/01/18 04:33:46;;;;;;;1.17;0.25;;;18.00;39.30;;;;;;5091365;28;20025;-80
2021/01/18 04:36:12;;;;;;;0.80;0.20;;;18.00;39.30;;;;;;5086248;28;20059;-80
2021/01/18 04:38:37;;;;;;;2.50;0.20;;;18.00;39.30;;;;;;5079854;28;20028;-80
2021/01/18 04:41:08;;;;;;;0.90;0.45;;;18.00;39.20;;;;;;5098506;28;20091;-80
2021/01/18 04:43:35;;;;;;;1.27;0.20;;;18.00;39.30;;;;;;5081117;28;20032;-80
2021/01/18 04:46:05;;;;;;;0.73;0.30;;;18.00;39.30;;;;;;5096126;28;20379;-80
2021/01/18 04:48:32;;;;;;;0.88;0.20;;;17.90;39.20;;;;;;5095955;28;20027;-80
2021/01/18 04:50:59;;;;;;;1.75;0.30;;;17.90;39.20;;;;;;5094146;28;20024;-80
2021/01/18 04:53:27;;;;;;;1.02;0.20;;;17.90;39.30;;;;;;5096148;28;20044;-81
2021/01/18 04:56:15;;;;;;;2.35;0.20;;;17.90;39.30;;;;;;5073996;28;20102;-80
2021/01/18 04:58:46;;;;;;;0.60;0.20;;;17.90;39.20;;;;;;5092299;28;20029;-81
2021/01/18 05:01:16;;;;;;;0.40;0.10;;;17.90;39.30;;;;;;5079425;28;20044;-81
2021/01/18 05:03:45;;;;;;;0.50;0.20;;;17.90;39.20;;;;;;5060153;28;20021;-80
2021/01/18 05:06:10;;;;;;;1.17;0.40;;;17.90;39.20;;;;;;5077119;28;20035;-80
2021/01/18 05:09:10;;;;;;;1.00;0.20;;;17.90;39.20;;;;;;5096492;28;20024;-80
2021/01/18 05:11:37;;;;;;;1.98;0.35;;;17.90;39.10;;;;;;5094374;28;20032;-79
2021/01/18 05:14:05;;;;;;;1.42;0.40;;;17.90;39.80;;;;;;5089644;28;20024;-78
2021/01/18 05:16:36;;;;;;;0.98;0.20;;;17.90;39.20;;;;;;5086017;28;20486;-80
2021/01/18 05:19:08;;;;;;;1.33;0.28;;;17.90;39.20;;;;;;5066430;28;20032;-81
2021/01/18 05:21:38;;;;;;;0.93;0.30;;;17.90;39.30;;;;;;5091790;28;20032;-81
2021/01/18 05:24:04;;;;;;;1.48;0.50;;;17.90;39.30;;;;;;5073676;28;20228;-81
2021/01/18 05:26:30;;;;;;;1.92;0.40;;;17.90;39.20;;;;;;5075625;28;20123;-80
2021/01/18 05:28:56;;;;;;;1.25;0.30;;;17.90;39.30;;;;;;5094992;28;20115;-79
2021/01/18 05:31:27;;;;;;;1.15;0.40;;;17.90;39.20;;;;;;5075484;28;20032;-80
2021/01/18 05:34:04;;;;;;;1.10;0.52;;;17.90;39.30;;;;;;5082824;28;20117;-80
2021/01/18 05:36:48;;;;;;;1.45;0.47;;;17.90;39.30;;;;;;5077673;28;20039;-82
2021/01/18 05:39:18;;;;;;;1.38;0.60;;;17.90;39.30;;;;;;5080110;28;20029;-81
2021/01/18 05:41:45;;;;;;;1.08;0.50;;;17.90;39.30;;;;;;5075257;28;20040;-80
2021/01/18 05:44:11;;;;;;;0.77;0.30;;;17.90;39.30;;;;;;5061326;28;20028;-80
2021/01/18 05:46:46;;;;;;;1.65;0.38;;;17.80;39.30;;;;;;5072368;28;20253;-81
2021/01/18 05:49:16;;;;;;;0.80;0.30;;;17.80;39.30;;;;;;5086712;28;20034;-82
2021/01/18 05:51:48;;;;;;;1.77;0.68;;;17.80;39.40;;;;;;5066980;28;20031;-80
2021/01/18 05:54:14;;;;;;;;;;;18.00;39.30;;;;;;5087394;28;20032;-81
2021/01/18 05:56:43;;;;;;;1.50;0.30;;;18.20;38.90;;;;;;5077070;28;20342;-80
2021/01/18 05:59:18;;;;;;;1.15;0.40;;;18.40;38.70;;;;;;5078713;28;20528;-80
2021/01/18 06:01:46;;;;;;;0.93;0.35;;;18.50;38.80;;;;;;5089000;28;20109;-80
2021/01/18 06:04:13;;;;;;;0.65;0.38;;;18.60;38.10;;;;;;5094203;28;20035;-80
2021/01/18 06:06:40;;;;;;;0.73;0.40;;;18.80;38.00;;;;;;5095216;28;20093;-80
2021/01/18 06:09:06;;;;;;;1.20;0.40;;;18.90;37.80;;;;;;5064775;28;20054;-80
2021/01/18 06:11:32;;;;;;;1.10;0.20;;;18.90;37.70;;;;;;5094690;28;20028;-79
2021/01/18 06:14:05;;;;;;;0.90;0.32;;;19.00;37.70;;;;;;5067177;28;20655;-80
2021/01/18 06:16:32;;;;;;;0.60;0.20;;;19.10;37.70;;;;;;5090650;28;20383;-80
2021/01/18 06:19:07;;;;;;;1.95;0.30;;;19.10;37.60;;;;;;5095115;28;20025;-80
2021/01/18 06:21:41;;;;;;;0.80;0.20;;;19.10;37.50;;;;;;5093403;28;20039;-81
2021/01/18 06:24:27;;;;;;;0.80;0.30;;;19.20;37.60;;;;;;5074418;28;20031;-82
2021/01/18 06:26:54;;;;;;;0.95;0.32;;;19.20;37.50;;;;;;5076772;28;20072;-80
2021/01/18 06:29:44;;;;;;;1.13;0.30;;;19.20;37.50;;;;;;5090092;28;20115;-80
2021/01/18 06:32:14;;;;;;;1.00;0.30;;;19.20;37.40;;;;;;5095421;28;20108;-80
2021/01/18 06:34:39;;;;;;;1.17;0.40;;;19.30;37.50;;;;;;5083676;28;20083;-79
2021/01/18 06:37:19;;;;;;;1.10;0.40;;;19.40;37.30;;;;;;5065096;28;20444;-81
2021/01/18 06:39:46;;;;;;;0.82;0.20;;;19.50;37.30;;;;;;5073342;28;20406;-80
2021/01/18 06:42:21;;;;;;;0.70;0.40;;;19.50;37.20;;;;;;5072254;28;20032;-81
2021/01/18 06:44:47;;;;;;;0.95;0.28;;;19.50;37.20;;;;;;5080415;28;20025;-80
2021/01/18 06:47:32;;;;;;;0.77;0.30;;;19.50;37.20;;;;;;5076209;28;20070;-79
2021/01/18 06:50:04;;;;;;;0.80;0.30;;;19.60;37.20;;;;;;5085458;28;20078;-80
2021/01/18 06:52:32;;;;;;;1.10;0.30;;;19.60;37.20;;;;;;5090435;28;20046;-79
2021/01/18 06:55:06;;;;;;;0.77;0.20;;;19.60;37.20;;;;;;5073067;28;20051;-79
2021/01/18 06:58:16;;;;;;;1.77;0.40;;;19.60;37.20;;;;;;5082108;28;20032;-80
2021/01/18 07:00:46;;;;;;;0.88;0.25;;;19.60;37.20;;;;;;5077804;28;20502;-80
2021/01/18 07:03:53;;;;;;;1.38;0.25;;;19.70;37.20;;;;;;5084523;28;20013;-80
2021/01/18 07:06:28;;;;;;;0.70;0.20;;;19.80;37.20;;;;;;5060846;28;20048;-80
2021/01/18 07:08:58;;;;;;;0.77;0.30;;;19.80;37.10;;;;;;5094652;28;20031;-79
2021/01/18 07:11:24;;;;;;;0.60;0.22;;;19.80;37.10;;;;;;5101598;28;20054;-81
2021/01/18 07:13:50;;;;;;;1.15;0.30;;;19.90;37.20;;;;;;5092543;28;20059;-81
2021/01/18 07:16:21;;;;;;;1.10;0.20;;;19.90;37.20;;;;;;5058246;28;20067;-81
2021/01/18 07:18:56;;;;;;;0.65;0.35;;;19.90;37.30;;;;;;5083202;28;20024;-80
2021/01/18 07:21:26;;;;;;;0.70;0.20;;;19.90;37.20;;;;;;5086749;28;20038;-80
2021/01/18 07:23:59;;;;;;;0.77;0.30;;;19.80;37.30;;;;;;5088569;28;20084;-81
2021/01/18 07:26:32;;;;;;;0.68;0.30;;;19.80;37.50;;;;;;5077323;28;20064;-81
2021/01/18 07:29:03;;;;;;;1.38;0.50;;;19.70;37.50;;;;;;5088724;28;20075;-80
2021/01/18 07:31:30;;;;;;;0.77;0.30;;;19.70;37.60;;;;;;5072490;28;20564;-79
2021/01/18 07:33:56;;;;;;;0.70;0.30;;;19.70;37.60;;;;;;5088045;28;20063;-80
2021/01/18 07:36:24;;;;;;;1.98;0.40;;;19.70;37.70;;;;;;5091625;28;20474;-81
2021/01/18 07:38:49;;;;;;;1.60;0.43;;;19.60;37.70;;;;;;5070848;28;20844;-81
2021/01/18 07:41:15;;;;;;;0.75;0.30;;;19.60;37.80;;;;;;5089972;28;20028;-81
2021/01/18 07:43:40;;;;;;;0.80;0.38;;;19.60;37.80;;;;;;5097612;28;20028;-78
2021/01/18 07:46:24;;;;;;;0.88;0.30;;;19.60;37.90;;;;;;5096048;28;20073;-80
2021/01/18 07:48:51;;;;;;;1.80;0.40;;;19.50;38.00;;;;;;5082360;28;20050;-80
2021/01/18 07:51:24;;;;;;;5.38;0.40;;;19.50;38.00;;;;;;5091409;28;20024;-80
2021/01/18 07:53:50;;;;;;;2.05;0.30;;;19.40;38.40;;;;;;5077582;28;20020;-81
2021/01/18 07:56:24;;;;;;;1.08;0.40;;;19.30;38.60;;;;;;5081781;28;20730;-81
2021/01/18 07:59:00;;;;;;;1.35;0.50;;;19.30;38.90;;;;;;5092546;28;20039;-81
2021/01/18 08:01:30;;;;;;;1.75;0.57;;;19.30;38.90;;;;;;5086804;28;20612;-81
2021/01/18 08:04:17;;;;;;;1.83;0.45;;;19.30;38.80;;;;;;5093811;28;20048;-82
2021/01/18 08:07:01;;;;;;;1.48;0.43;;;19.50;38.60;;;;;;5071375;28;20056;-82
2021/01/18 08:09:28;;;;;;;1.63;0.57;;;19.60;38.20;;;;;;5083036;28;20024;-83
2021/01/18 08:12:13;;;;;;;1.35;0.43;;;19.70;37.90;;;;;;5080556;28;20165;-83
2021/01/18 08:14:48;;;;;;;1.38;0.55;;;19.80;37.80;;;;;;5096011;28;20020;-81
2021/01/18 08:17:17;;;;;;;4.43;0.68;;;19.90;37.70;;;;;;5079830;28;20025;-81
2021/01/18 08:20:06;;;;;;;1.40;0.80;;;19.90;37.60;;;;;;5094355;28;20025;-81
2021/01/18 08:22:32;;;;;;;3.55;0.75;;;19.90;37.50;;;;;;5108481;28;20046;-83
2021/01/18 08:24:58;;;;;;;3.30;0.70;;;20.00;37.40;;;;;;5119861;28;20028;-83
2021/01/18 08:27:41;;;;;;;1.90;0.45;;;20.10;37.40;;;;;;5118895;28;20026;-83
2021/01/18 08:30:33;;;;;;;1.67;0.90;;;20.10;37.30;;;;;;5113953;28;20059;-83
2021/01/18 08:33:00;;;;;;;1.10;0.68;;;20.20;37.20;;;;;;5118225;28;20032;-83
2021/01/18 08:35:29;;;;;;;3.67;0.98;;;20.20;37.20;;;;;;5111848;28;20027;-83
2021/01/18 08:38:10;;;;;;;2.75;0.85;;;20.20;37.20;;;;;;5114357;28;20035;-84
2021/01/18 08:40:39;;;;;;;4.63;1.15;;;20.20;37.50;;;;;;5102356;28;20036;-82
2021/01/18 08:43:05;;;;;;;1.98;0.90;;;20.30;37.30;;;;;;5092853;28;20121;-82
2021/01/18 08:45:39;;;;;;;2.58;1.30;;;20.40;37.30;;;;;;5086656;28;20025;-82
2021/01/18 08:48:07;;;;;;;1.65;0.82;;;20.30;37.30;;;;;;5062942;28;20046;-81
2021/01/18 08:50:55;;;;;;;5.22;0.95;;;20.30;37.30;;;;;;5074694;28;20108;-82
2021/01/18 08:53:40;;;;;;;4.03;1.13;;;20.40;37.30;;;;;;5080371;28;20028;-83
2021/01/18 08:56:07;;;;;;;3.58;1.23;;;20.30;37.30;;;;;;5068375;28;20024;-82
2021/01/18 08:58:42;;;;;;;2.80;1.27;;;20.30;37.40;;;;;;5080946;28;20020;-82
2021/01/18 09:01:19;;;;;;;1.50;1.10;;;20.20;37.50;;;;;;5079150;28;20036;-81
2021/01/18 09:03:45;;;;;;;2.97;1.30;;;20.20;37.50;;;;;;5070777;28;20016;-82
2021/01/18 09:06:12;;;;;;;2.88;1.23;;;20.20;38.00;;;;;;5082156;28;20016;-82
2021/01/18 09:08:40;;;;;;;12.88;1.40;;;20.20;37.60;;;;;;5096432;28;20084;-82
2021/01/18 09:11:08;;;;;;;1.85;1.30;;;20.10;37.60;;;;;;5097102;28;20020;-88
2021/01/18 09:13:36;;;;;;;2.55;1.50;;;20.10;37.90;;;;;;5080949;28;20153;-81
2021/01/18 09:16:09;;;;;;;1.85;1.13;;;20.20;37.60;;;;;;5094867;28;20060;-82
2021/01/18 09:18:36;;;;;;;1.48;0.88;;;20.30;37.50;;;;;;5095268;28;20028;-80
2021/01/18 09:21:05;;;;;;;2.20;1.15;;;20.40;37.60;;;;;;5081609;28;20511;-79
2021/01/18 09:23:32;;;;;;;3.72;1.40;;;20.40;37.60;;;;;;5080807;28;20036;-81
2021/01/18 09:26:02;;;;;;;2.28;1.13;;;20.40;37.60;;;;;;5092619;28;20110;-82
2021/01/18 09:28:28;;;;;;;3.47;1.38;;;20.30;38.30;;;;;;5080418;28;20905;-81
2021/01/18 09:30:54;;;;;;;1.65;1.42;;;20.30;38.10;;;;;;5082101;28;20062;-82
2021/01/18 09:33:20;;;;;;;2.63;1.63;;;20.20;38.10;;;;;;5081557;28;20035;-83
2021/01/18 09:35:46;;;;;;;2.35;1.40;;;20.10;38.40;;;;;;5097591;28;20032;-83
2021/01/18 09:38:13;;;;;;;4.13;1.50;;;20.00;38.80;;;;;;5098746;28;20034;-81
2021/01/18 09:40:42;;;;;;;2.65;1.65;;;20.00;39.00;;;;;;5094087;28;20180;-80
2021/01/18 09:43:10;;;;;;;3.72;1.60;;;19.90;39.00;;;;;;5096644;28;20040;-79
2021/01/18 09:45:37;;;;;;;2.38;1.50;;;19.90;39.20;;;;;;5084297;28;20040;-79
2021/01/18 09:48:04;;;;;;;3.17;1.88;;;19.90;39.80;;;;;;5087395;28;20097;-82
2021/01/18 09:50:30;;;;;;;3.35;1.92;;;19.90;39.50;;;;;;5098745;28;20037;-82
2021/01/18 09:52:57;;;;;;;8.10;1.52;;;19.90;39.50;;;;;;5076216;28;20044;-81
2021/01/18 09:55:30;;;;;;;3.42;1.63;;;19.90;39.50;;;;;;5090030;28;20108;-82
2021/01/18 09:58:09;;;;;;;3.17;2.03;;;19.90;39.50;;;;;;5090727;28;20104;-81
2021/01/18 10:00:37;;;;;;;2.80;1.83;;;19.90;39.80;;;;;;5080623;28;20043;-81
2021/01/18 10:03:03;;;;;;;2.97;1.48;;;19.90;39.70;;;;;;5093470;28;20061;-80
2021/01/18 10:05:32;;;;;;;2.03;1.45;;;19.90;39.80;;;;;;5074378;28;20028;-81
2021/01/18 10:08:01;;;;;;;4.95;1.83;;;19.90;39.70;;;;;;5064138;28;20028;-81
2021/01/18 10:10:27;;;;;;;2.78;1.50;;;19.90;39.60;;;;;;5090733;28;20059;-82
2021/01/18 10:13:23;;;;;;;2.75;1.70;;;19.90;39.60;;;;;;5094999;28;20090;-81
2021/01/18 10:16:12;;;;;;;3.72;2.05;;;19.90;39.70;;;;;;5093164;28;20065;-84
2021/01/18 10:18:42;;;;;;;3.17;1.13;;;19.90;39.90;;;;;;5068790;28;20024;-82
2021/01/18 10:21:10;;;;;;;4.32;1.63;;;19.90;39.90;;;;;;5070324;23;20052;-42
2021/01/18 10:23:38;;;;;;;2.03;1.50;;;19.90;39.90;;;;;;5046020;28;20029;-43
2021/01/18 10:26:17;;;;;;;6.25;1.80;;;19.90;40.00;;;;;;5063048;28;20037;-44
2021/01/18 10:29:00;;;;;;;2.30;1.63;;;19.90;39.90;;;;;;5040290;28;20021;-40
2021/01/18 10:31:30;;;;;;;2.88;1.90;;;19.90;39.80;;;;;;5021834;28;20022;-42
2021/01/18 10:34:09;;;;;;;2.42;1.67;;;19.80;39.90;;;;;;5019066;28;20048;-42
2021/01/18 10:36:35;;;;;;;2.40;1.75;;;19.80;39.70;;;;;;5021705;28;20494;-43
2021/01/18 10:39:00;;;;;;;3.30;1.45;;;19.70;39.80;;;;;;5026565;28;20091;-43
2021/01/18 10:41:29;;;;;;;3.28;2.13;;;19.70;40.00;;;;;;5024857;28;20061;-44
2021/01/18 10:43:54;;;;;;;8.65;2.10;;;19.70;40.00;;;;;;5029563;28;20516;-42
2021/01/18 10:46:20;;;;;;;3.03;1.80;;;19.70;40.00;;;;;;5028199;28;20033;-41
2021/01/18 10:48:56;;;;;;;2.83;1.55;;;19.70;40.00;;;;;;5024856;28;20029;-42
2021/01/18 10:51:29;;;;;;;4.70;1.58;;;19.80;40.20;;;;;;5032325;28;20029;-44
2021/01/18 10:54:01;;;;;;;2.55;1.75;;;19.80;40.20;;;;;;5028849;28;20036;-43
2021/01/18 10:56:33;;;;;;;10.90;1.58;;;19.80;40.30;;;;;;5023594;28;20034;-43
2021/01/18 10:59:00;;;;;;;2.78;1.35;;;19.80;40.40;;;;;;5025631;28;20099;-42
2021/01/18 11:01:26;;;;;;;2.80;1.42;;;19.80;40.40;;;;;;5016973;28;20489;-41
2021/01/18 11:03:52;;;;;;;1.75;1.15;;;19.80;40.40;;;;;;5022965;28;20108;-39
2021/01/18 11:06:21;;;;;;;2.13;1.20;;;19.80;40.30;;;;;;5021943;28;20048;-41
2021/01/18 11:08:53;;;;;;;2.20;1.50;;;19.80;40.40;;;;;;5025339;28;20030;-43
2021/01/18 11:11:26;;;;;;;2.85;1.67;;;19.80;40.50;;;;;;5023066;28;20021;-45
2021/01/18 11:14:04;;;;;;;3.03;2.10;;;19.80;40.50;;;;;;5019135;28;20048;-38
2021/01/18 11:16:29;;;;;;;2.65;1.60;;;19.80;40.40;;;;;;5015678;28;20064;-38
2021/01/18 11:19:06;;;;;;;1.88;1.13;;;19.90;40.50;;;;;;5018890;28;20065;-40
2021/01/18 11:21:32;;;;;;;3.20;1.85;;;19.90;40.50;;;;;;5022992;28;20034;-40
2021/01/18 11:23:57;;;;;;;3.17;1.83;;;19.80;40.40;;;;;;5026602;28;20056;-39
2021/01/18 11:26:24;;;;;;;3.53;1.30;;;19.80;40.40;;;;;;5013424;28;20038;-44
2021/01/18 11:28:50;;;;;;;3.45;1.27;;;19.80;40.40;;;;;;5020221;28;20486;-44
2021/01/18 11:31:16;;;;;;;5.13;1.30;;;19.80;40.20;;;;;;5019167;28;20100;-44
2021/01/18 11:33:44;;;;;;;2.70;1.60;;;19.80;39.90;;;;;;5024710;28;20091;-44
2021/01/18 11:36:10;;;;;;;7.65;1.55;;;19.80;40.10;;;;;;5026904;28;20100;-42
2021/01/18 11:38:35;;;;;;;1.52;1.33;;;19.80;40.30;;;;;;5023508;28;20030;-41
2021/01/18 11:41:01;;;;;;;3.10;1.27;;;19.90;40.30;;;;;;5020197;28;20037;-43
2021/01/18 11:43:27;;;;;;;2.28;1.30;;;20.00;40.20;;;;;;5029256;28;20052;-42
2021/01/18 11:45:52;;;;;;;4.45;1.08;;;20.10;40.00;;;;;;5026129;28;20540;-47
2021/01/18 11:48:18;;;;;;;3.17;1.38;;;20.20;40.00;;;;;;5029262;28;20133;-46
2021/01/18 11:50:43;;;;;;;3.20;1.58;;;20.20;39.80;;;;;;5026343;28;20041;-43
2021/01/18 11:53:10;;;;;;;3.25;1.33;;;20.40;39.80;;;;;;5029912;28;20034;-42
2021/01/18 11:55:36;;;;;;;3.47;1.50;;;20.50;39.80;;;;;;5023232;28;20032;-42
2021/01/18 11:58:02;;;;;;;2.70;1.45;;;20.60;39.60;;;;;;5030344;28;20148;-40
2021/01/18 12:00:29;;;;;;;1.92;1.27;;;20.60;39.60;;;;;;5023678;28;20067;-42
2021/01/18 12:02:56;;;;;;;2.80;1.38;;;20.60;39.50;;;;;;5020880;28;20042;-41
2021/01/18 12:05:25;;;;;;;1.80;1.20;;;20.60;39.60;;;;;;5020041;28;20041;-43
2021/01/18 12:08:02;;;;;;;1.52;1.10;;;20.70;39.70;;;;;;5018929;28;20048;-46
2021/01/18 12:10:29;;;;;;;2.95;1.02;;;20.70;39.60;;;;;;5028553;28;20025;-45
2021/01/18 12:12:54;;;;;;;1.50;0.70;;;20.70;39.70;;;;;;5026658;28;20036;-43
2021/01/18 12:15:21;;;;;;;2.35;1.02;;;20.70;39.70;;;;;;5024009;28;20356;-43
2021/01/18 12:17:47;;;;;;;1.85;0.77;;;20.70;39.70;;;;;;5028612;28;20028;-44
2021/01/18 12:20:15;;;;;;;2.38;1.02;;;20.70;39.80;;;;;;5028024;28;20085;-45
2021/01/18 12:22:40;;;;;;;2.22;1.38;;;20.70;40.00;;;;;;5027334;28;20030;-46
2021/01/18 12:25:07;;;;;;;1.20;0.90;;;20.70;40.10;;;;;;5028595;28;20114;-41
2021/01/18 12:27:33;;;;;;;2.80;0.95;;;20.70;40.10;;;;;;5027683;28;20112;-41
2021/01/18 12:29:59;;;;;;;1.73;1.17;;;20.70;40.10;;;;;;5028151;28;20033;-46
2021/01/18 12:32:25;;;;;;;4.32;0.90;;;20.70;40.10;;;;;;5031146;28;20096;-43
2021/01/18 12:34:50;;;;;;;2.65;0.93;;;20.70;40.20;;;;;;5030087;28;20032;-47
2021/01/18 12:37:16;;;;;;;1.58;0.98;;;20.70;40.20;;;;;;5031430;28;20482;-44
2021/01/18 12:39:42;;;;;;;1.27;0.70;;;20.70;40.40;;;;;;5031101;28;20028;-44
2021/01/18 12:42:07;;;;;;;1.73;0.82;;;20.70;40.40;;;;;;5029568;28;20036;-43
2021/01/18 12:44:33;;;;;;;1.67;1.15;;;20.70;40.40;;;;;;5031284;28;20530;-46
2021/01/18 12:47:06;;;;;;;1.95;0.98;;;20.70;40.10;;;;;;5030950;28;20037;-51
2021/01/18 12:49:32;;;;;;;1.95;1.05;;;20.70;40.20;;;;;;5027028;28;20037;-52
2021/01/18 12:51:59;;;;;;;1.45;0.88;;;20.70;40.20;;;;;;5026647;28;20179;-46
2021/01/18 12:54:24;;;;;;;1.38;0.90;;;20.70;40.20;;;;;;5030940;28;20044;-47
2021/01/18 12:56:53;;;;;;;2.85;1.33;;;20.70;40.30;;;;;;5021663;28;20030;-51
2021/01/18 12:59:25;;;;;;;1.95;0.98;;;20.70;40.30;;;;;;5026213;28;20026;-48
2021/01/18 13:02:07;;;;;;;1.73;0.75;;;20.60;40.40;;;;;;5026992;28;20045;-47
2021/01/18 13:04:33;;;;;;;1.58;1.08;;;20.70;40.40;;;;;;5020843;28;20041;-48